x

South Huron - 43nm East Of Oscoda, Mi (45008) Wave Buoy

3:50pm - Sun 23rd Nov 2014 All times are CST. -6 hours from GMT.

  • Sig Wave height 4.6ft
  • Swell Direction
  • Peak Period 5s
  • Average Period 5s
  • Wind
    22mph, 27mph gusts
  • Sea Temp 43°f
  • Air Temp 46°f
  • Sea Pressure 1004.6mb
  • South Huron - 43nm East Of Oscoda, Mi
  • South Huron - 43nm East Of Oscoda, Mi

More Historic Weather Station data

Upgrade to MSW Pro to gain access to the past 30 days of data for over 8000 Wavebouys and Weather Stations around the globe.

Join Pro

Comparision Forecast

View Surf forecast
   
Sun 11/23 3:50pm 4.5ft 5s 5s 22 27 mph 1004.6mb 43f 46f
2:50pm 4.5ft 6s 4s 22 27 mph 1005.7mb 43f 45f
1:50pm 5ft 6s 5s 22 27 mph 1006mb 43f 45f
12:50pm 4.5ft 6s 4s 25 27 mph 1007.4mb 43f 44f
11:50am 4.5ft 5s 4s 22 27 mph 1008.2mb 43f 44f
10:50am 3ft 4s 4s 20 25 mph 1009.8mb 43f 45f
9:50am 3ft 4s 4s 18 22 mph 1011mb 44f 45f
8:50am 2.5ft 4s 4s 18 22 mph 1011.2mb 44f 45f
7:50am 2ft 4s 3s 18 20 mph 1011mb 44f 46f
6:50am 1.6ft 4s 3s 16 18 mph 1011.1mb 44f 46f
5:50am 1.6ft 4s 3s 16 18 mph 1010.8mb 44f 45f
4:50am 1.6ft 4s 4s 11 13 mph 1011.3mb 44f 45f
3:50am 2ft 5s 4s 9 11 mph 1011.7mb 44f 45f
2:50am 2ft 5s 4s 11 13 mph 1012mb 44f 45f
1:50am 2.5ft 5s 4s 13 16 mph 1011.9mb 44f 46f
12:50am 2.5ft 4s 4s 9 11 mph 1011.8mb 44f 45f
Sat 11/22 11:50pm 2.5ft 4s 4s 13 16 mph 1011.9mb 44f 45f
10:50pm 3ft 4s 4s 13 16 mph 1011.7mb 44f 44f
9:50pm 3.5ft 5s 4s 13 16 mph 1011.2mb 44f 44f
8:50pm 3.5ft 5s 4s 18 20 mph 1011mb 44f 44f
7:50pm 4ft 5s 4s 18 20 mph 1010.9mb 44f 43f
6:50pm 4.5ft 5s 4s 20 22 mph 1010.9mb 44f 42f
5:50pm 4.5ft 6s 4s 20 25 mph 1011mb 44f 42f
4:50pm 5ft 5s 5s 22 27 mph 1011.1mb 44f 42f
3:50pm 5ft 6s 5s 22 27 mph 1010.6mb 44f 42f
2:50pm 6ft 5s 5s 29 36 mph 1010.6mb 44f 42f
1:50pm 6ft 6s 5s 27 31 mph 1010.4mb 44f 41f
12:50pm 7ft 6s 5s 27 34 mph 1011.1mb 44f 40f
11:50am 6ft 6s 5s 27 31 mph 1012.1mb 44f 39f
10:50am 7ft 6s 5s 27 34 mph 1013.1mb 44f 38f
9:50am 6.5ft 7s 5s 29 36 mph 1013.7mb 44f 38f
8:50am 7ft 5s 5s 27 31 mph 1014.4mb 44f 36f
7:50am 6.5ft 6s 5s 29 36 mph 1015.2mb 44f 36f
6:50am 6ft 6s 5s 27 36 mph 1015.8mb 44f 36f
5:50am 7ft 6s 5s 25 31 mph 1016.8mb 44f 35f
4:50am 6.5ft 6s 5s 27 31 mph 1018mb 44f 33f
3:50am 7ft 6s 5s 27 34 mph 1018.4mb 44f 33f
2:50am 7ft 6s 5s 27 34 mph 1019.5mb 44f 32f
1:50am 7ft 6s 5s 29 36 mph 1020.9mb 44f 32f
12:50am 6.5ft 6s 5s 29 36 mph 1021.4mb 44f 31f
Fri 11/21 11:50pm 6.5ft 5s 5s 29 36 mph 1022.6mb 44f 30f
10:50pm 5ft 5s 5s 29 36 mph 1023.2mb 44f 30f
9:50pm 5ft 5s 4s 29 34 mph 1024.3mb 44f 29f
8:50pm 5ft 5s 4s 27 34 mph 1025.5mb 44f 29f
7:50pm 4.5ft 5s 4s 29 34 mph 1026.2mb 44f 29f
6:50pm 4ft 5s 4s 25 31 mph 1026.8mb 44f 28f
5:50pm 3.5ft 4s 4s 25 27 mph 1027.5mb 44f 28f
4:50pm 3ft 4s 4s 20 25 mph 1028.1mb 44f 28f
3:50pm 3.5ft 4s 4s 16 25 mph 1028.3mb 44f 27f
2:50pm 3.5ft 4s 4s 16 20 mph 1028.4mb 44f 27f
1:50pm 3.5ft 5s 4s 18 27 mph 1028.1mb 44f 27f
12:50pm 3.5ft 5s 4s 16 20 mph 1028.8mb 44f 26f
11:50am 4ft 5s 4s 13 18 mph 1028.6mb 44f 25f
10:50am 4.5ft 5s 4s 16 25 mph 1028.7mb 44f 24f
9:50am 4.5ft 5s 4s 18 25 mph 1028.7mb 44f 24f
8:50am 5ft 6s 5s 20 27 mph 1027.9mb 44f 24f
7:50am 5.5ft 6s 5s 22 27 mph 1027.2mb 44f 24f
6:50am 5.5ft 6s 5s 22 29 mph 1026.3mb 44f 24f
5:50am 6.5ft 6s 5s 22 29 mph 1025.3mb 44f 24f
4:50am 6ft 6s 5s 22 29 mph 1024.4mb 44f 24f
3:50am 6.5ft 7s 5s 22 29 mph 1023.2mb 44f 26f
2:50am 7ft 6s 5s 22 27 mph 1021.8mb 44f 26f
1:50am 8ft 8s 5s 27 31 mph 1020.5mb 44f 26f
12:50am 9ft 7s 6s 27 34 mph 1019.1mb 44f 27f
Thu 11/20 11:50pm 9ft 7s 6s 29 36 mph 1017.8mb 44f 27f
10:50pm 9ft 7s 6s 29 36 mph 1016.8mb 44f 26f
9:50pm 10ft 6s 6s 29 38 mph 1016mb 44f 26f
2:50pm 6ft 6s 5s 29 38 mph 1009.9mb 43f 26f
1:50pm 6.5ft 6s 5s 27 34 mph 1009.1mb 44f 26f
12:50pm 6ft 6s 5s 25 31 mph 1008.6mb 44f 26f
11:50am 7ft 7s 5s 27 34 mph 1008.3mb 44f 26f
10:50am 7ft 7s 5s 27 34 mph 1008.3mb 44f 26f
9:50am 8ft 6s 5s 31 38 mph 1008.1mb 44f 26f
8:50am 8ft 7s 5s 31 38 mph 1007.5mb 44f 27f
7:50am 8.5ft 7s 6s 34 40 mph 1007.2mb 44f 27f
6:50am 8.5ft 6s 6s 34 40 mph 1006.5mb 44f 27f
5:50am 8.5ft 7s 6s 34 43 mph 1006.1mb 44f 28f
4:50am 9ft 7s 6s 34 40 mph 1005.6mb 44f 28f
3:50am 9ft 8s 6s 36 43 mph 1005.3mb 44f 28f
2:50am 9ft 7s 6s 34 45 mph 1004.9mb 44f 29f
1:50am 9.5ft 7s 6s 36 45 mph 1004.7mb 44f 29f
12:50am 9ft 7s 6s 34 43 mph 1004.3mb 44f 29f
Wed 11/19 11:50pm 9ft 7s 6s 36 43 mph 1004.2mb 44f 29f